createdAt,value
2019-01-30T00:00:28.882Z,4.70
2019-01-30T00:02:57.299Z,5.57
2019-01-30T00:05:25.705Z,5.40
2019-01-30T00:07:54.117Z,5.73
2019-01-30T00:10:22.522Z,4.77
2019-01-30T00:12:51.078Z,6.53
2019-01-30T00:15:19.699Z,4.20
2019-01-30T00:17:48.292Z,4.50
2019-01-30T00:20:16.715Z,4.30
2019-01-30T00:22:45.115Z,3.67
2019-01-30T00:25:14.676Z,4.17
2019-01-30T00:27:43.394Z,4.20
2019-01-30T00:30:15.235Z,4.13
2019-01-30T00:32:44.383Z,4.30
2019-01-30T00:35:12.954Z,2.97
2019-01-30T00:37:41.336Z,3.80
2019-01-30T00:40:16.733Z,4.33
2019-01-30T00:42:45.172Z,4.20
2019-01-30T00:45:17.939Z,3.67
2019-01-30T00:47:46.509Z,2.93
2019-01-30T00:50:17.042Z,4.03
2019-01-30T00:52:48.220Z,3.00
2019-01-30T00:55:23.638Z,3.60
2019-01-30T00:57:52.190Z,3.60
2019-01-30T01:00:27.771Z,3.80
2019-01-30T01:02:56.324Z,3.60
2019-01-30T01:05:24.780Z,3.30
2019-01-30T01:07:53.400Z,3.53
2019-01-30T01:10:25.374Z,3.23
2019-01-30T01:12:54.000Z,2.70
2019-01-30T01:15:22.977Z,2.97
2019-01-30T01:17:51.899Z,3.50
2019-01-30T01:20:22.012Z,3.43
2019-01-30T01:22:58.348Z,3.20
2019-01-30T01:25:26.892Z,3.57
2019-01-30T01:27:55.249Z,3.47
2019-01-30T01:30:30.712Z,3.23
2019-01-30T01:32:59.239Z,3.40
2019-01-30T01:35:27.555Z,3.50
2019-01-30T01:37:56.228Z,3.00
2019-01-30T01:40:24.650Z,2.70
2019-01-30T01:42:53.235Z,2.70
2019-01-30T01:45:23.415Z,2.47
2019-01-30T01:47:52.154Z,2.73
2019-01-30T01:50:22.345Z,2.43
2019-01-30T01:52:50.881Z,2.50
2019-01-30T01:55:19.336Z,2.13
2019-01-30T01:57:47.677Z,2.83
2019-01-30T02:00:42.619Z,2.20
2019-01-30T02:03:11.064Z,2.87
2019-01-30T02:05:39.581Z,2.00
2019-01-30T02:08:07.967Z,3.00
2019-01-30T02:10:36.728Z,3.20
2019-01-30T02:13:05.436Z,2.80
2019-01-30T02:15:33.811Z,2.63
2019-01-30T02:18:02.251Z,2.43
2019-01-30T02:20:33.660Z,3.17
2019-01-30T02:23:02.280Z,2.97
2019-01-30T02:25:31.026Z,3.33
2019-01-30T02:27:59.648Z,2.97
2019-01-30T02:30:30.123Z,3.00
2019-01-30T02:32:58.652Z,2.87
2019-01-30T02:35:27.438Z,2.57
2019-01-30T02:37:56.208Z,2.87
2019-01-30T02:40:25.794Z,2.83
2019-01-30T02:42:54.615Z,2.90
2019-01-30T02:45:25.584Z,2.53
2019-01-30T02:47:54.147Z,2.97
2019-01-30T02:50:22.900Z,3.10
2019-01-30T02:52:51.325Z,2.90
2019-01-30T02:55:20.375Z,2.53
2019-01-30T02:57:48.970Z,3.50
2019-01-30T03:00:20.378Z,2.53
2019-01-30T03:02:48.794Z,2.93
2019-01-30T03:05:17.293Z,2.20
2019-01-30T03:07:45.945Z,3.30
2019-01-30T03:10:19.410Z,2.97
2019-01-30T03:12:47.764Z,3.20
2019-01-30T03:15:17.792Z,2.83
2019-01-30T03:17:46.541Z,3.07
2019-01-30T03:20:18.083Z,2.80
2019-01-30T03:22:51.984Z,3.40
2019-01-30T03:25:22.426Z,4.20
2019-01-30T03:27:50.707Z,4.20
2019-01-30T03:30:30.786Z,4.13
2019-01-30T03:32:59.347Z,4.27
2019-01-30T03:35:27.995Z,3.83
2019-01-30T03:37:56.413Z,3.70
2019-01-30T03:40:24.872Z,3.33
2019-01-30T03:42:54.979Z,4.03
2019-01-30T03:45:24.310Z,4.43
2019-01-30T03:47:52.838Z,4.00
2019-01-30T03:50:21.523Z,3.70
2019-01-30T03:52:50.256Z,3.27
2019-01-30T03:55:20.511Z,3.60
2019-01-30T03:57:49.213Z,4.17
2019-01-30T04:00:20.576Z,3.67
2019-01-30T04:02:49.463Z,4.50
2019-01-30T04:05:17.963Z,4.67
2019-01-30T04:07:49.485Z,3.83
2019-01-30T04:10:20.699Z,4.13
2019-01-30T04:12:56.341Z,3.90
2019-01-30T04:15:25.098Z,4.73
2019-01-30T04:17:53.544Z,4.23
2019-01-30T04:20:22.359Z,4.50
2019-01-30T04:22:54.134Z,4.60
2019-01-30T04:25:22.799Z,4.50
2019-01-30T04:27:51.475Z,4.27
2019-01-30T04:30:24.818Z,4.60
2019-01-30T04:32:53.279Z,4.40
2019-01-30T04:35:21.927Z,4.73
2019-01-30T04:37:50.363Z,4.70
2019-01-30T04:40:20.822Z,4.50
2019-01-30T04:42:49.370Z,4.87
2019-01-30T04:45:23.576Z,4.33
2019-01-30T04:47:52.299Z,4.73
2019-01-30T04:50:20.912Z,3.93
2019-01-30T04:52:49.600Z,4.30
2019-01-30T04:55:18.380Z,4.67
2019-01-30T04:57:46.792Z,4.57
2019-01-30T05:00:18.041Z,4.13
2019-01-30T05:02:46.486Z,4.20
2019-01-30T05:05:14.871Z,4.87
2019-01-30T05:07:43.473Z,4.20
2019-01-30T05:10:13.298Z,4.20
2019-01-30T05:12:43.776Z,4.63
2019-01-30T05:15:20.079Z,4.13
2019-01-30T05:17:51.246Z,4.03
2019-01-30T05:20:21.190Z,4.10
2019-01-30T05:22:53.179Z,4.60
2019-01-30T05:25:21.704Z,4.83
2019-01-30T05:27:50.218Z,4.33
2019-01-30T05:30:28.086Z,4.27
2019-01-30T05:32:56.459Z,4.60
2019-01-30T05:35:27.552Z,4.80
2019-01-30T05:37:56.211Z,4.40
2019-01-30T05:40:24.923Z,4.70
2019-01-30T05:42:53.636Z,4.57
2019-01-30T05:45:22.391Z,5.30
2019-01-30T05:47:50.906Z,4.50
2019-01-30T05:50:20.962Z,4.87
2019-01-30T05:52:49.429Z,5.53
2019-01-30T05:55:18.432Z,5.00
2019-01-30T05:57:46.906Z,5.00
2019-01-30T06:00:53.133Z,5.13
2019-01-30T06:03:21.570Z,5.00
2019-01-30T06:05:49.917Z,5.40
2019-01-30T06:08:18.663Z,5.37
2019-01-30T06:10:47.468Z,5.80
2019-01-30T06:13:19.768Z,5.20
2019-01-30T06:15:48.378Z,5.10
2019-01-30T06:18:17.661Z,5.17
2019-01-30T06:20:45.974Z,4.90
2019-01-30T06:23:14.814Z,5.07
2019-01-30T06:25:43.544Z,5.27
2019-01-30T06:28:12.237Z,5.80
2019-01-30T06:30:40.614Z,5.17
2019-01-30T06:33:09.220Z,5.40
2019-01-30T06:35:37.506Z,5.13
2019-01-30T06:38:05.855Z,5.73
2019-01-30T06:40:34.432Z,5.37
2019-01-30T06:43:03.010Z,6.80
2019-01-30T06:45:35.391Z,6.03
2019-01-30T06:48:03.711Z,5.37
2019-01-30T06:50:32.297Z,4.93
2019-01-30T06:53:00.636Z,4.97
2019-01-30T06:55:28.915Z,5.70
2019-01-30T06:57:57.500Z,5.60
2019-01-30T07:00:26.968Z,6.57
2019-01-30T07:02:56.418Z,5.87
2019-01-30T07:05:24.900Z,5.80
2019-01-30T07:07:53.360Z,5.77
2019-01-30T07:10:24.009Z,6.50
2019-01-30T07:12:52.921Z,5.10
2019-01-30T07:15:21.510Z,5.63
2019-01-30T07:17:49.812Z,6.63
2019-01-30T07:20:18.354Z,5.73
2019-01-30T07:22:53.384Z,5.60
2019-01-30T07:25:22.462Z,6.10
2019-01-30T07:27:51.101Z,5.13
2019-01-30T07:30:25.688Z,5.80
2019-01-30T07:32:54.370Z,4.47
2019-01-30T07:35:22.702Z,4.57
2019-01-30T07:37:50.989Z,4.53
2019-01-30T07:40:19.572Z,4.67
2019-01-30T07:42:47.850Z,4.93
2019-01-30T07:45:24.922Z,4.37
2019-01-30T07:47:53.485Z,4.33
2019-01-30T07:50:22.067Z,4.33
2019-01-30T07:52:50.674Z,3.97
2019-01-30T07:55:19.181Z,3.50
2019-01-30T07:57:47.665Z,2.60
2019-01-30T08:00:21.715Z,3.00
2019-01-30T08:02:53.424Z,2.90
2019-01-30T08:05:22.749Z,2.83
2019-01-30T08:07:51.344Z,2.77
2019-01-30T08:10:19.694Z,1.60
2019-01-30T08:12:48.425Z,1.97
2019-01-30T08:15:34.951Z,3.03
2019-01-30T08:18:03.638Z,1.40
2019-01-30T08:20:31.921Z,1.40
2019-01-30T08:23:00.778Z,1.47
2019-01-30T08:25:29.535Z,1.07
2019-01-30T08:27:58.665Z,1.00
2019-01-30T08:30:29.406Z,0.90
2019-01-30T08:33:04.617Z,0.70
2019-01-30T08:35:30.470Z,1.20
2019-01-30T08:37:59.047Z,0.90
2019-01-30T08:40:27.767Z,0.80
2019-01-30T08:42:56.527Z,0.93
2019-01-30T08:45:30.062Z,0.77
2019-01-30T08:47:58.453Z,1.00
2019-01-30T08:50:27.072Z,0.90
2019-01-30T08:52:55.472Z,0.80
2019-01-30T08:55:23.819Z,0.80
2019-01-30T08:57:52.417Z,0.80
2019-01-30T09:00:28.875Z,0.90
2019-01-30T09:02:57.199Z,0.97
2019-01-30T09:05:25.884Z,0.97
2019-01-30T09:07:54.995Z,0.70
2019-01-30T09:10:25.446Z,0.80
2019-01-30T09:12:53.881Z,0.77
2019-01-30T09:15:24.385Z,0.90
2019-01-30T09:17:52.830Z,0.80
2019-01-30T09:20:23.685Z,1.00
2019-01-30T09:22:51.992Z,0.80
2019-01-30T09:25:25.741Z,0.80
2019-01-30T09:27:54.420Z,0.90
2019-01-30T09:30:26.281Z,0.50
2019-01-30T09:32:55.503Z,0.50
2019-01-30T09:35:24.866Z,0.60
2019-01-30T09:37:57.014Z,0.50
2019-01-30T09:40:27.610Z,0.30
2019-01-30T09:42:59.133Z,0.60
2019-01-30T09:45:31.132Z,0.50
2019-01-30T09:47:59.550Z,0.50
2019-01-30T09:50:27.927Z,0.50
2019-01-30T09:52:56.211Z,0.30
2019-01-30T09:55:24.580Z,0.37
2019-01-30T09:57:53.003Z,0.30
2019-01-30T10:00:24.830Z,0.23
2019-01-30T10:02:53.182Z,0.10
2019-01-30T10:05:21.564Z,0.20
2019-01-30T10:07:50.008Z,0.40
2019-01-30T10:10:38.750Z,0.20
2019-01-30T10:13:07.863Z,0.20
2019-01-30T10:15:41.694Z,0.20
2019-01-30T10:18:11.006Z,0.10
2019-01-30T10:20:41.600Z,0.00
2019-01-30T10:23:10.172Z,0.30
2019-01-30T10:25:38.514Z,0.10
2019-01-30T10:28:16.245Z,0.10
2019-01-30T10:30:44.281Z,0.20
2019-01-30T10:33:12.616Z,0.20
2019-01-30T10:35:42.531Z,0.20
2019-01-30T10:38:10.913Z,0.57
2019-01-30T10:40:39.220Z,0.30
2019-01-30T10:43:09.353Z,0.30
2019-01-30T10:45:38.278Z,0.30
2019-01-30T10:48:07.198Z,0.20
2019-01-30T10:50:35.570Z,0.50
2019-01-30T10:53:04.107Z,0.30
2019-01-30T10:55:34.637Z,0.30
2019-01-30T10:58:05.604Z,0.30
2019-01-30T11:00:45.734Z,0.40
2019-01-30T11:03:14.153Z,0.30
2019-01-30T11:05:45.563Z,0.27
2019-01-30T11:08:14.022Z,0.23
2019-01-30T11:10:42.795Z,0.40
2019-01-30T11:13:11.241Z,0.20
2019-01-30T11:15:39.592Z,0.30
2019-01-30T11:18:10.013Z,0.20
2019-01-30T11:20:38.366Z,0.20
2019-01-30T11:23:07.473Z,0.30
2019-01-30T11:25:44.455Z,0.30
2019-01-30T11:28:12.929Z,0.50
2019-01-30T11:30:41.541Z,0.40
2019-01-30T11:33:09.942Z,0.20
2019-01-30T11:35:38.333Z,0.20
2019-01-30T11:38:08.759Z,0.20
2019-01-30T11:40:37.270Z,0.10
2019-01-30T11:43:05.590Z,0.10
2019-01-30T11:45:42.441Z,0.23
2019-01-30T11:48:11.084Z,0.20
2019-01-30T11:50:41.385Z,0.70
2019-01-30T11:53:10.025Z,0.30
2019-01-30T11:55:39.092Z,0.80
2019-01-30T11:58:07.763Z,3.20
2019-01-30T12:00:37.907Z,0.50
2019-01-30T12:03:06.422Z,1.83
2019-01-30T12:05:34.759Z,7.73
2019-01-30T12:08:03.366Z,1.07
2019-01-30T12:10:31.768Z,0.27
2019-01-30T12:13:00.068Z,1.30
2019-01-30T12:15:33.167Z,1.13
2019-01-30T12:18:01.500Z,0.53
2019-01-30T12:20:29.962Z,0.67
2019-01-30T12:22:58.628Z,0.33
2019-01-30T12:25:27.403Z,1.97
2019-01-30T12:27:59.425Z,2.13
2019-01-30T12:30:29.203Z,4.17
2019-01-30T12:32:57.622Z,2.40
2019-01-30T12:35:26.110Z,0.63
2019-01-30T12:37:55.028Z,11.63
2019-01-30T12:40:29.593Z,1.13
2019-01-30T12:43:03.768Z,2.53
2019-01-30T12:45:37.384Z,4.97
2019-01-30T12:48:06.630Z,3.67
2019-01-30T12:50:35.164Z,9.33
2019-01-30T12:53:03.802Z,1.10
2019-01-30T12:55:32.179Z,9.37
2019-01-30T12:58:00.645Z,1.73
2019-01-30T13:00:37.433Z,5.47
2019-01-30T13:03:05.901Z,1.73
2019-01-30T13:05:34.603Z,2.80
2019-01-30T13:08:04.828Z,3.63
2019-01-30T13:10:33.389Z,0.33
2019-01-30T13:13:01.727Z,1.20
2019-01-30T13:15:30.660Z,0.60
2019-01-30T13:18:15.726Z,0.27
2019-01-30T13:20:35.600Z,0.30
2019-01-30T13:23:03.997Z,0.37
2019-01-30T13:25:33.040Z,0.70
2019-01-30T13:28:01.356Z,0.30
2019-01-30T13:30:32.695Z,0.50
2019-01-30T13:33:01.548Z,0.30
2019-01-30T13:35:29.917Z,0.50
2019-01-30T13:38:02.009Z,0.30
2019-01-30T13:40:35.582Z,0.50
2019-01-30T13:43:04.774Z,0.57
2019-01-30T13:45:33.700Z,0.40
2019-01-30T13:48:02.146Z,0.40
2019-01-30T13:50:30.622Z,0.43
2019-01-30T13:52:59.079Z,0.60
2019-01-30T13:55:27.744Z,0.50
2019-01-30T13:57:56.306Z,0.40
2019-01-30T14:01:05.240Z,0.47
2019-01-30T14:03:33.912Z,0.37
2019-01-30T14:06:02.686Z,0.70
2019-01-30T14:08:31.232Z,0.33
2019-01-30T14:10:59.545Z,0.50
2019-01-30T14:13:27.953Z,0.30
2019-01-30T14:15:56.823Z,0.30
2019-01-30T14:18:26.866Z,0.40
2019-01-30T14:20:55.191Z,0.40
2019-01-30T14:23:23.572Z,0.57
2019-01-30T14:25:51.928Z,0.80
2019-01-30T14:28:20.208Z,0.60
2019-01-30T14:30:48.570Z,0.43
2019-01-30T14:33:17.017Z,0.33
2019-01-30T14:35:45.431Z,0.50
2019-01-30T14:38:13.720Z,0.50
2019-01-30T14:40:42.465Z,0.63
2019-01-30T14:43:10.890Z,0.50
2019-01-30T14:45:39.296Z,0.40
2019-01-30T14:48:07.668Z,0.50
2019-01-30T14:50:36.187Z,0.43
2019-01-30T14:53:04.644Z,0.50
2019-01-30T14:55:33.171Z,0.60
2019-01-30T14:58:02.024Z,0.40
2019-01-30T15:00:32.377Z,0.40
2019-01-30T15:03:02.572Z,0.60
2019-01-30T15:05:30.929Z,0.70
2019-01-30T15:08:00.221Z,0.73
2019-01-30T15:10:30.263Z,0.70
2019-01-30T15:12:58.744Z,0.50
2019-01-30T15:15:32.004Z,0.70
2019-01-30T15:18:02.371Z,0.50
2019-01-30T15:20:33.652Z,0.50
2019-01-30T15:23:02.286Z,0.90
2019-01-30T15:25:38.181Z,1.60
2019-01-30T15:28:06.571Z,0.83
2019-01-30T15:30:37.779Z,0.90
2019-01-30T15:33:06.891Z,1.17
2019-01-30T15:35:35.658Z,1.00
2019-01-30T15:38:06.517Z,0.80
2019-01-30T15:40:36.515Z,0.57
2019-01-30T15:43:05.056Z,0.60
2019-01-30T15:45:33.445Z,0.70
2019-01-30T15:48:01.825Z,0.83
2019-01-30T15:50:36.140Z,0.63
2019-01-30T15:53:09.286Z,1.10
2019-01-30T15:55:37.083Z,0.93
2019-01-30T15:58:08.385Z,1.10
2019-01-30T16:01:36.827Z,1.00
2019-01-30T16:04:06.105Z,0.90
2019-01-30T16:06:34.652Z,0.60
2019-01-30T16:09:04.706Z,0.93
2019-01-30T16:11:33.436Z,1.07
2019-01-30T16:14:01.959Z,0.80
2019-01-30T16:16:30.931Z,0.77
2019-01-30T16:21:54.456Z,0.90
2019-01-30T16:24:22.902Z,0.97
2019-01-30T16:26:51.346Z,1.07
2019-01-30T16:29:21.557Z,1.17
2019-01-30T16:31:54.135Z,0.80
2019-01-30T16:34:22.567Z,1.07
2019-01-30T16:36:50.987Z,1.00
2019-01-30T16:39:19.684Z,0.87
2019-01-30T16:41:48.427Z,0.90
2019-01-30T16:44:17.042Z,0.83
2019-01-30T16:46:45.389Z,0.60
2019-01-30T16:49:16.849Z,0.77
2019-01-30T16:51:49.099Z,0.70
2019-01-30T16:54:18.136Z,2.47
2019-01-30T16:56:51.300Z,1.80
2019-01-30T16:59:20.091Z,1.20
2019-01-30T17:01:48.761Z,0.67
2019-01-30T17:04:17.418Z,0.90
2019-01-30T17:06:45.777Z,0.80
2019-01-30T17:09:14.289Z,0.73
2019-01-30T17:11:42.731Z,0.60
2019-01-30T17:14:12.417Z,0.73
2019-01-30T17:16:40.839Z,0.73
2019-01-30T17:19:09.357Z,1.00
2019-01-30T17:21:37.852Z,0.50
2019-01-30T17:24:06.408Z,1.00
2019-01-30T17:26:35.407Z,1.37
2019-01-30T17:29:03.958Z,1.47
2019-01-30T17:31:34.594Z,1.70
2019-01-30T17:34:04.358Z,1.20
2019-01-30T17:36:33.024Z,1.80
2019-01-30T17:39:01.623Z,1.70
2019-01-30T17:41:30.105Z,1.00
2019-01-30T17:43:59.121Z,1.60
2019-01-30T17:46:28.068Z,1.20
2019-01-30T17:48:56.967Z,1.00
2019-01-30T17:51:25.344Z,1.00
2019-01-30T17:53:53.886Z,1.30
2019-01-30T17:56:22.263Z,1.00
2019-01-30T17:58:51.171Z,1.13
2019-01-30T18:01:19.628Z,1.00
2019-01-30T18:03:48.254Z,0.80
2019-01-30T18:06:16.853Z,1.07
2019-01-30T18:08:45.377Z,1.37
2019-01-30T18:11:13.830Z,1.17
2019-01-30T18:13:45.077Z,0.93
2019-01-30T18:16:12.767Z,1.00
2019-01-30T18:18:41.229Z,1.10
2019-01-30T18:21:09.575Z,0.60
2019-01-30T18:23:41.638Z,0.80
2019-01-30T18:26:13.559Z,0.60
2019-01-30T18:28:42.110Z,0.90
2019-01-30T18:31:11.906Z,0.80
2019-01-30T18:33:40.822Z,0.80
2019-01-30T18:36:09.440Z,0.90
2019-01-30T18:38:38.197Z,0.97
2019-01-30T18:41:07.222Z,1.30
2019-01-30T18:43:37.600Z,1.53
2019-01-30T18:46:07.990Z,1.60
2019-01-30T18:48:43.538Z,1.17
2019-01-30T18:51:12.398Z,1.03
2019-01-30T18:53:40.947Z,1.10
2019-01-30T18:56:12.563Z,1.00
2019-01-30T18:58:41.068Z,1.10
2019-01-30T19:01:09.846Z,0.80
2019-01-30T19:03:38.920Z,1.30
2019-01-30T19:06:07.328Z,0.93
2019-01-30T19:08:36.068Z,0.87
2019-01-30T19:11:04.636Z,1.27
2019-01-30T19:13:33.334Z,1.40
2019-01-30T19:16:03.038Z,0.93
2019-01-30T19:18:31.586Z,1.43
2019-01-30T19:21:00.137Z,1.97
2019-01-30T19:23:30.299Z,4.13
2019-01-30T19:25:58.795Z,1.60
2019-01-30T19:28:27.379Z,1.40
2019-01-30T19:30:58.380Z,2.17
2019-01-30T19:33:26.919Z,1.10
2019-01-30T19:35:55.525Z,1.10
2019-01-30T19:38:24.310Z,1.63
2019-01-30T19:40:52.990Z,5.13
2019-01-30T19:43:21.675Z,7.37
2019-01-30T19:45:50.406Z,5.43
2019-01-30T19:48:18.900Z,1.30
2019-01-30T19:50:47.837Z,5.60
2019-01-30T19:53:16.532Z,28.03
2019-01-30T19:55:45.091Z,4.37
2019-01-30T19:58:16.791Z,1.07
2019-01-30T20:00:46.067Z,1.53
2019-01-30T20:03:17.929Z,1.40
2019-01-30T20:05:46.658Z,2.07
2019-01-30T20:08:15.186Z,2.27
2019-01-30T20:10:43.682Z,2.30
2019-01-30T20:13:12.288Z,2.47
2019-01-30T20:15:40.683Z,3.40
2019-01-30T20:18:09.400Z,8.50
2019-01-30T20:20:39.130Z,25.20
2019-01-30T20:23:07.718Z,12.07
2019-01-30T20:25:43.971Z,3.90
2019-01-30T20:28:14.615Z,4.00
2019-01-30T20:30:43.255Z,2.33
2019-01-30T20:33:11.910Z,1.77
2019-01-30T20:35:40.668Z,1.20
2019-01-30T20:38:09.120Z,2.10
2019-01-30T20:40:40.147Z,1.07
2019-01-30T20:43:09.013Z,1.10
2019-01-30T20:45:37.396Z,1.60
2019-01-30T20:48:09.311Z,1.13
2019-01-30T20:50:38.426Z,1.30
2019-01-30T20:53:09.616Z,1.20
2019-01-30T20:55:38.911Z,1.20
2019-01-30T20:58:16.268Z,1.40
2019-01-30T21:00:44.828Z,1.37
2019-01-30T21:03:13.428Z,1.67
2019-01-30T21:05:45.214Z,1.30
2019-01-30T21:08:13.772Z,1.53
2019-01-30T21:10:43.879Z,1.40
2019-01-30T21:13:12.705Z,1.80
2019-01-30T21:15:41.620Z,1.55
2019-01-30T21:18:09.995Z,1.40
2019-01-30T21:20:38.518Z,1.63
2019-01-30T21:23:11.243Z,1.80
2019-01-30T21:25:43.395Z,1.80
2019-01-30T21:28:12.403Z,1.10
2019-01-30T21:30:43.146Z,1.57
2019-01-30T21:33:12.361Z,1.77
2019-01-30T21:35:41.127Z,2.40
2019-01-30T21:38:09.740Z,2.10
2019-01-30T21:40:45.434Z,1.80
2019-01-30T21:43:18.239Z,1.90
2019-01-30T21:45:48.831Z,1.73
2019-01-30T21:48:17.740Z,1.80
2019-01-30T21:50:46.195Z,1.70
2019-01-30T21:53:15.103Z,2.00
2019-01-30T21:55:43.747Z,2.07
2019-01-30T21:58:12.342Z,1.70
2019-01-30T22:00:41.072Z,1.60
2019-01-30T22:03:09.745Z,1.70
2019-01-30T22:05:38.410Z,2.13
2019-01-30T22:08:07.750Z,1.70
2019-01-30T22:10:36.593Z,1.90
2019-01-30T22:13:05.665Z,1.73
2019-01-30T22:15:34.319Z,1.40
2019-01-30T22:18:02.753Z,1.70
2019-01-30T22:20:32.707Z,1.70
2019-01-30T22:23:01.309Z,2.57
2019-01-30T22:25:29.987Z,2.30
2019-01-30T22:28:00.089Z,2.67
2019-01-30T22:30:31.271Z,1.97
2019-01-30T22:32:59.793Z,2.10
2019-01-30T22:35:28.589Z,1.87
2019-01-30T22:37:57.539Z,1.83
2019-01-30T22:40:26.432Z,1.60
2019-01-30T22:42:56.219Z,1.67
2019-01-30T22:45:25.044Z,2.03
2019-01-30T22:47:53.499Z,1.77
2019-01-30T22:50:23.101Z,2.00
2019-01-30T22:52:51.906Z,2.10
2019-01-30T22:55:22.439Z,2.30
2019-01-30T22:57:51.548Z,2.77
2019-01-30T23:00:54.198Z,2.20
2019-01-30T23:03:41.005Z,2.20
2019-01-30T23:06:15.443Z,2.20
2019-01-30T23:09:20.626Z,2.57
2019-01-30T23:12:24.174Z,2.17
2019-01-30T23:15:14.264Z,2.10
2019-01-30T23:18:02.472Z,2.60
2019-01-30T23:20:32.541Z,2.50
2019-01-30T23:23:27.183Z,2.60
2019-01-30T23:26:04.913Z,2.73
2019-01-30T23:28:48.631Z,3.20
2019-01-30T23:31:47.851Z,2.50
2019-01-30T23:34:46.874Z,2.60
2019-01-30T23:37:24.283Z,2.70
2019-01-30T23:39:58.694Z,2.80
2019-01-30T23:42:57.318Z,2.20
2019-01-30T23:45:31.693Z,2.33
2019-01-30T23:48:26.295Z,2.60
2019-01-30T23:51:35.859Z,2.70
2019-01-30T23:54:28.517Z,1.90
2019-01-30T23:57:15.514Z,1.63
